sensor_id;sensor_type;location;lat;lon;timestamp;temperature;humidity
16829;DHT22;8531;48.078;11.968;2022-11-02T00:01:40;11.20;99.90
16829;DHT22;8531;48.078;11.968;2022-11-02T00:04:06;11.20;99.90
16829;DHT22;8531;48.078;11.968;2022-11-02T00:06:32;11.20;99.90
16829;DHT22;8531;48.078;11.968;2022-11-02T00:08:58;11.20;99.90
16829;DHT22;8531;48.078;11.968;2022-11-02T00:11:24;11.20;99.90
16829;DHT22;8531;48.078;11.968;2022-11-02T00:13:49;11.10;99.90
16829;DHT22;8531;48.078;11.968;2022-11-02T00:16:17;11.10;99.90
16829;DHT22;8531;48.078;11.968;2022-11-02T00:18:46;11.10;99.90
16829;DHT22;8531;48.078;11.968;2022-11-02T00:21:14;11.10;99.90
16829;DHT22;8531;48.078;11.968;2022-11-02T00:23:41;11.10;99.90
16829;DHT22;8531;48.078;11.968;2022-11-02T00:26:08;11.10;99.90
16829;DHT22;8531;48.078;11.968;2022-11-02T00:28:34;11.10;99.90
16829;DHT22;8531;48.078;11.968;2022-11-02T00:31:00;11.10;99.90
16829;DHT22;8531;48.078;11.968;2022-11-02T00:33:26;11.10;99.90
16829;DHT22;8531;48.078;11.968;2022-11-02T00:35:53;11.00;99.90
16829;DHT22;8531;48.078;11.968;2022-11-02T00:38:19;11.00;99.90
16829;DHT22;8531;48.078;11.968;2022-11-02T00:40:44;10.90;99.90
16829;DHT22;8531;48.078;11.968;2022-11-02T00:43:10;10.90;99.90
16829;DHT22;8531;48.078;11.968;2022-11-02T00:45:36;10.90;99.90
16829;DHT22;8531;48.078;11.968;2022-11-02T00:48:02;10.90;99.90
16829;DHT22;8531;48.078;11.968;2022-11-02T00:50:28;10.80;99.90
16829;DHT22;8531;48.078;11.968;2022-11-02T00:52:53;10.80;99.90
16829;DHT22;8531;48.078;11.968;2022-11-02T00:55:19;10.90;99.90
16829;DHT22;8531;48.078;11.968;2022-11-02T00:57:45;10.90;99.90
16829;DHT22;8531;48.078;11.968;2022-11-02T01:00:12;10.90;99.90
16829;DHT22;8531;48.078;11.968;2022-11-02T01:02:39;10.80;99.90
16829;DHT22;8531;48.078;11.968;2022-11-02T01:05:06;10.80;99.90
16829;DHT22;8531;48.078;11.968;2022-11-02T01:07:32;10.80;99.90
16829;DHT22;8531;48.078;11.968;2022-11-02T01:09:58;10.70;99.90
16829;DHT22;8531;48.078;11.968;2022-11-02T01:12:24;10.70;99.90
16829;DHT22;8531;48.078;11.968;2022-11-02T01:14:50;10.70;99.90
16829;DHT22;8531;48.078;11.968;2022-11-02T01:17:16;10.70;99.90
16829;DHT22;8531;48.078;11.968;2022-11-02T01:19:42;10.60;99.90
16829;DHT22;8531;48.078;11.968;2022-11-02T01:22:08;10.60;99.90
16829;DHT22;8531;48.078;11.968;2022-11-02T01:24:33;10.50;99.90
16829;DHT22;8531;48.078;11.968;2022-11-02T01:26:59;10.50;99.90
16829;DHT22;8531;48.078;11.968;2022-11-02T01:29:25;10.50;99.90
16829;DHT22;8531;48.078;11.968;2022-11-02T01:31:51;10.40;99.90
16829;DHT22;8531;48.078;11.968;2022-11-02T01:34:18;10.40;99.90
16829;DHT22;8531;48.078;11.968;2022-11-02T01:36:45;10.40;99.90
16829;DHT22;8531;48.078;11.968;2022-11-02T01:39:14;10.40;99.90
16829;DHT22;8531;48.078;11.968;2022-11-02T01:41:40;10.30;99.90
16829;DHT22;8531;48.078;11.968;2022-11-02T01:44:27;10.30;99.90
16829;DHT22;8531;48.078;11.968;2022-11-02T01:47:10;10.30;99.90
16829;DHT22;8531;48.078;11.968;2022-11-02T01:49:40;10.30;99.90
16829;DHT22;8531;48.078;11.968;2022-11-02T01:52:30;10.30;99.90
16829;DHT22;8531;48.078;11.968;2022-11-02T01:55:11;10.20;99.90
16829;DHT22;8531;48.078;11.968;2022-11-02T01:57:39;10.20;99.90
16829;DHT22;8531;48.078;11.968;2022-11-02T02:00:11;10.20;99.90
16829;DHT22;8531;48.078;11.968;2022-11-02T02:02:50;10.30;99.90
16829;DHT22;8531;48.078;11.968;2022-11-02T02:05:17;10.30;99.90
16829;DHT22;8531;48.078;11.968;2022-11-02T02:07:45;10.40;99.90
16829;DHT22;8531;48.078;11.968;2022-11-02T02:10:12;10.30;99.90
16829;DHT22;8531;48.078;11.968;2022-11-02T02:12:39;10.30;99.90
16829;DHT22;8531;48.078;11.968;2022-11-02T02:15:06;10.30;99.90
16829;DHT22;8531;48.078;11.968;2022-11-02T02:17:55;10.40;99.90
16829;DHT22;8531;48.078;11.968;2022-11-02T02:20:41;10.40;99.90
16829;DHT22;8531;48.078;11.968;2022-11-02T02:23:32;10.50;99.90
16829;DHT22;8531;48.078;11.968;2022-11-02T02:28:55;10.50;99.90
16829;DHT22;8531;48.078;11.968;2022-11-02T02:31:30;10.40;99.90
16829;DHT22;8531;48.078;11.968;2022-11-02T02:36:51;10.50;99.90
16829;DHT22;8531;48.078;11.968;2022-11-02T02:39:25;10.50;99.90
16829;DHT22;8531;48.078;11.968;2022-11-02T02:44:34;10.60;99.90
16829;DHT22;8531;48.078;11.968;2022-11-02T02:47:16;10.60;99.90
16829;DHT22;8531;48.078;11.968;2022-11-02T02:49:57;10.70;99.90
16829;DHT22;8531;48.078;11.968;2022-11-02T02:52:25;10.70;99.90
16829;DHT22;8531;48.078;11.968;2022-11-02T02:54:51;10.70;99.90
16829;DHT22;8531;48.078;11.968;2022-11-02T02:57:22;10.70;99.90
16829;DHT22;8531;48.078;11.968;2022-11-02T02:59:49;10.70;99.90
16829;DHT22;8531;48.078;11.968;2022-11-02T03:02:25;10.70;99.90
16829;DHT22;8531;48.078;11.968;2022-11-02T03:04:52;10.70;99.90
16829;DHT22;8531;48.078;11.968;2022-11-02T03:07:38;10.70;99.90
16829;DHT22;8531;48.078;11.968;2022-11-02T03:10:18;10.70;99.90
16829;DHT22;8531;48.078;11.968;2022-11-02T03:15:42;10.70;99.90
16829;DHT22;8531;48.078;11.968;2022-11-02T03:18:16;10.70;99.90
16829;DHT22;8531;48.078;11.968;2022-11-02T03:23:51;10.70;99.90
16829;DHT22;8531;48.078;11.968;2022-11-02T03:26:21;10.80;99.90
16829;DHT22;8531;48.078;11.968;2022-11-02T03:29:04;10.80;99.90
16829;DHT22;8531;48.078;11.968;2022-11-02T03:34:40;10.80;99.90
16829;DHT22;8531;48.078;11.968;2022-11-02T03:37:25;10.90;99.90
16829;DHT22;8531;48.078;11.968;2022-11-02T03:40:17;11.00;99.90
16829;DHT22;8531;48.078;11.968;2022-11-02T03:42:44;11.20;99.90
16829;DHT22;8531;48.078;11.968;2022-11-02T03:45:20;11.30;99.90
16829;DHT22;8531;48.078;11.968;2022-11-02T03:47:49;11.50;99.90
16829;DHT22;8531;48.078;11.968;2022-11-02T03:50:19;11.60;99.90
16829;DHT22;8531;48.078;11.968;2022-11-02T03:52:47;11.70;99.90
16829;DHT22;8531;48.078;11.968;2022-11-02T03:55:18;11.80;99.90
16829;DHT22;8531;48.078;11.968;2022-11-02T03:57:47;11.90;99.90
16829;DHT22;8531;48.078;11.968;2022-11-02T04:00:16;11.90;99.90
16829;DHT22;8531;48.078;11.968;2022-11-02T04:02:48;11.90;99.90
16829;DHT22;8531;48.078;11.968;2022-11-02T04:05:14;12.00;99.90
16829;DHT22;8531;48.078;11.968;2022-11-02T04:07:42;12.00;99.90
16829;DHT22;8531;48.078;11.968;2022-11-02T04:10:27;12.00;99.90
16829;DHT22;8531;48.078;11.968;2022-11-02T04:12:53;12.00;99.90
16829;DHT22;8531;48.078;11.968;2022-11-02T04:15:37;12.00;99.90
16829;DHT22;8531;48.078;11.968;2022-11-02T04:18:03;12.00;99.90
16829;DHT22;8531;48.078;11.968;2022-11-02T04:20:50;12.00;99.90
16829;DHT22;8531;48.078;11.968;2022-11-02T04:23:17;12.00;99.90
16829;DHT22;8531;48.078;11.968;2022-11-02T04:26:02;12.10;99.90
16829;DHT22;8531;48.078;11.968;2022-11-02T04:28:27;12.10;99.90
16829;DHT22;8531;48.078;11.968;2022-11-02T04:30:53;12.10;99.90
16829;DHT22;8531;48.078;11.968;2022-11-02T04:33:19;12.10;99.90
16829;DHT22;8531;48.078;11.968;2022-11-02T04:36:01;12.10;99.90
16829;DHT22;8531;48.078;11.968;2022-11-02T04:38:28;12.10;99.90
16829;DHT22;8531;48.078;11.968;2022-11-02T04:41:16;12.10;99.90
16829;DHT22;8531;48.078;11.968;2022-11-02T04:44:01;12.10;99.90
16829;DHT22;8531;48.078;11.968;2022-11-02T04:46:33;12.10;99.90
16829;DHT22;8531;48.078;11.968;2022-11-02T04:48:59;12.10;99.90
16829;DHT22;8531;48.078;11.968;2022-11-02T04:51:26;12.10;99.90
16829;DHT22;8531;48.078;11.968;2022-11-02T04:53:53;12.00;99.90
16829;DHT22;8531;48.078;11.968;2022-11-02T04:56:20;12.10;99.90
16829;DHT22;8531;48.078;11.968;2022-11-02T04:58:53;12.10;99.90
16829;DHT22;8531;48.078;11.968;2022-11-02T05:01:20;12.00;99.90
16829;DHT22;8531;48.078;11.968;2022-11-02T05:03:46;12.00;99.90
16829;DHT22;8531;48.078;11.968;2022-11-02T05:06:13;12.00;99.90
16829;DHT22;8531;48.078;11.968;2022-11-02T05:08:39;12.00;99.90
16829;DHT22;8531;48.078;11.968;2022-11-02T05:11:05;11.90;99.90
16829;DHT22;8531;48.078;11.968;2022-11-02T05:13:31;11.90;99.90
16829;DHT22;8531;48.078;11.968;2022-11-02T05:15:58;11.90;99.90
16829;DHT22;8531;48.078;11.968;2022-11-02T05:18:25;11.80;99.90
16829;DHT22;8531;48.078;11.968;2022-11-02T05:20:53;11.80;99.90
16829;DHT22;8531;48.078;11.968;2022-11-02T05:23:19;11.80;99.90
16829;DHT22;8531;48.078;11.968;2022-11-02T05:25:56;11.80;99.90
16829;DHT22;8531;48.078;11.968;2022-11-02T05:28:23;11.70;99.90
16829;DHT22;8531;48.078;11.968;2022-11-02T05:30:49;11.70;99.90
16829;DHT22;8531;48.078;11.968;2022-11-02T05:33:15;11.60;99.90
16829;DHT22;8531;48.078;11.968;2022-11-02T05:35:41;11.60;99.90
16829;DHT22;8531;48.078;11.968;2022-11-02T05:38:07;11.60;99.90
16829;DHT22;8531;48.078;11.968;2022-11-02T05:40:33;11.60;99.90
16829;DHT22;8531;48.078;11.968;2022-11-02T05:43:02;11.60;99.90
16829;DHT22;8531;48.078;11.968;2022-11-02T05:45:29;11.60;99.90
16829;DHT22;8531;48.078;11.968;2022-11-02T05:47:54;11.60;99.90
16829;DHT22;8531;48.078;11.968;2022-11-02T05:50:20;11.60;99.90
16829;DHT22;8531;48.078;11.968;2022-11-02T05:52:47;11.60;99.90
16829;DHT22;8531;48.078;11.968;2022-11-02T05:55:13;11.60;99.90
16829;DHT22;8531;48.078;11.968;2022-11-02T05:57:38;11.60;99.90
16829;DHT22;8531;48.078;11.968;2022-11-02T06:00:05;11.60;99.90
16829;DHT22;8531;48.078;11.968;2022-11-02T06:02:33;11.60;99.90
16829;DHT22;8531;48.078;11.968;2022-11-02T06:04:59;11.50;99.90
16829;DHT22;8531;48.078;11.968;2022-11-02T06:07:24;11.60;99.90
16829;DHT22;8531;48.078;11.968;2022-11-02T06:09:50;11.60;99.90
16829;DHT22;8531;48.078;11.968;2022-11-02T06:12:16;11.50;99.90
16829;DHT22;8531;48.078;11.968;2022-11-02T06:14:42;11.60;99.90
16829;DHT22;8531;48.078;11.968;2022-11-02T06:17:08;11.60;99.90
16829;DHT22;8531;48.078;11.968;2022-11-02T06:19:34;11.60;99.90
16829;DHT22;8531;48.078;11.968;2022-11-02T06:21:59;11.70;99.90
16829;DHT22;8531;48.078;11.968;2022-11-02T06:24:25;11.70;99.90
16829;DHT22;8531;48.078;11.968;2022-11-02T06:26:51;11.70;99.90
16829;DHT22;8531;48.078;11.968;2022-11-02T06:29:16;11.70;99.90
16829;DHT22;8531;48.078;11.968;2022-11-02T06:31:42;11.70;99.90
16829;DHT22;8531;48.078;11.968;2022-11-02T06:34:08;11.70;99.90
16829;DHT22;8531;48.078;11.968;2022-11-02T06:36:34;11.70;99.90
16829;DHT22;8531;48.078;11.968;2022-11-02T06:38:59;11.70;99.90
16829;DHT22;8531;48.078;11.968;2022-11-02T06:41:25;11.70;99.90
16829;DHT22;8531;48.078;11.968;2022-11-02T06:43:51;11.70;99.90
16829;DHT22;8531;48.078;11.968;2022-11-02T06:46:16;11.70;99.90
16829;DHT22;8531;48.078;11.968;2022-11-02T06:48:42;11.70;99.90
16829;DHT22;8531;48.078;11.968;2022-11-02T06:51:10;11.70;99.90
16829;DHT22;8531;48.078;11.968;2022-11-02T06:53:36;11.70;99.90
16829;DHT22;8531;48.078;11.968;2022-11-02T06:56:02;11.60;99.90
16829;DHT22;8531;48.078;11.968;2022-11-02T06:58:28;11.70;99.90
16829;DHT22;8531;48.078;11.968;2022-11-02T07:00:59;11.70;99.90
16829;DHT22;8531;48.078;11.968;2022-11-02T07:03:25;11.70;99.90
16829;DHT22;8531;48.078;11.968;2022-11-02T07:05:51;11.80;99.90
16829;DHT22;8531;48.078;11.968;2022-11-02T07:08:18;11.90;99.90
16829;DHT22;8531;48.078;11.968;2022-11-02T07:10:44;11.90;99.90
16829;DHT22;8531;48.078;11.968;2022-11-02T07:13:09;11.90;99.90
16829;DHT22;8531;48.078;11.968;2022-11-02T07:15:35;12.00;99.90
16829;DHT22;8531;48.078;11.968;2022-11-02T07:18:02;12.00;99.90
16829;DHT22;8531;48.078;11.968;2022-11-02T07:20:27;12.00;99.90
16829;DHT22;8531;48.078;11.968;2022-11-02T07:22:57;12.00;99.90
16829;DHT22;8531;48.078;11.968;2022-11-02T07:25:24;12.00;99.90
16829;DHT22;8531;48.078;11.968;2022-11-02T07:27:50;12.00;99.90
16829;DHT22;8531;48.078;11.968;2022-11-02T07:30:16;12.00;99.90
16829;DHT22;8531;48.078;11.968;2022-11-02T07:32:42;12.00;99.90
16829;DHT22;8531;48.078;11.968;2022-11-02T07:35:10;11.90;99.90
16829;DHT22;8531;48.078;11.968;2022-11-02T07:37:37;11.80;99.90
16829;DHT22;8531;48.078;11.968;2022-11-02T07:40:04;11.70;99.90
16829;DHT22;8531;48.078;11.968;2022-11-02T07:42:30;11.70;99.90
16829;DHT22;8531;48.078;11.968;2022-11-02T07:44:55;11.70;99.90
16829;DHT22;8531;48.078;11.968;2022-11-02T07:47:21;11.70;99.90
16829;DHT22;8531;48.078;11.968;2022-11-02T07:49:47;11.80;99.90
16829;DHT22;8531;48.078;11.968;2022-11-02T07:52:12;11.80;99.90
16829;DHT22;8531;48.078;11.968;2022-11-02T07:54:38;11.80;99.90
16829;DHT22;8531;48.078;11.968;2022-11-02T07:57:04;11.90;99.90
16829;DHT22;8531;48.078;11.968;2022-11-02T07:59:30;11.90;99.90
16829;DHT22;8531;48.078;11.968;2022-11-02T08:01:56;12.00;99.90
16829;DHT22;8531;48.078;11.968;2022-11-02T08:04:21;12.00;99.90
16829;DHT22;8531;48.078;11.968;2022-11-02T08:06:47;12.10;99.90
16829;DHT22;8531;48.078;11.968;2022-11-02T08:09:13;12.20;99.90
16829;DHT22;8531;48.078;11.968;2022-11-02T08:11:40;12.20;99.90
16829;DHT22;8531;48.078;11.968;2022-11-02T08:14:06;12.40;99.90
16829;DHT22;8531;48.078;11.968;2022-11-02T08:16:32;12.50;99.90
16829;DHT22;8531;48.078;11.968;2022-11-02T08:18:58;12.60;99.90
16829;DHT22;8531;48.078;11.968;2022-11-02T08:21:24;12.70;99.90
16829;DHT22;8531;48.078;11.968;2022-11-02T08:23:51;12.70;99.90
16829;DHT22;8531;48.078;11.968;2022-11-02T08:26:17;12.70;99.90
16829;DHT22;8531;48.078;11.968;2022-11-02T08:28:42;12.80;99.90
16829;DHT22;8531;48.078;11.968;2022-11-02T08:31:16;12.90;99.90
16829;DHT22;8531;48.078;11.968;2022-11-02T08:33:43;12.90;99.90
16829;DHT22;8531;48.078;11.968;2022-11-02T08:36:09;13.10;99.90
16829;DHT22;8531;48.078;11.968;2022-11-02T08:38:36;13.10;99.90
16829;DHT22;8531;48.078;11.968;2022-11-02T08:41:02;13.20;99.90
16829;DHT22;8531;48.078;11.968;2022-11-02T08:43:28;13.20;99.90
16829;DHT22;8531;48.078;11.968;2022-11-02T08:45:57;13.30;99.90
16829;DHT22;8531;48.078;11.968;2022-11-02T08:48:24;13.20;99.90
16829;DHT22;8531;48.078;11.968;2022-11-02T08:50:50;13.30;99.90
16829;DHT22;8531;48.078;11.968;2022-11-02T08:53:16;13.30;99.90
16829;DHT22;8531;48.078;11.968;2022-11-02T08:55:41;13.40;99.90
16829;DHT22;8531;48.078;11.968;2022-11-02T08:58:08;13.50;99.90
16829;DHT22;8531;48.078;11.968;2022-11-02T09:00:34;13.60;99.90
16829;DHT22;8531;48.078;11.968;2022-11-02T09:03:13;13.70;99.90
16829;DHT22;8531;48.078;11.968;2022-11-02T09:05:43;13.70;99.90
16829;DHT22;8531;48.078;11.968;2022-11-02T09:08:17;13.70;99.90
16829;DHT22;8531;48.078;11.968;2022-11-02T09:10:45;13.80;99.90
16829;DHT22;8531;48.078;11.968;2022-11-02T09:13:12;13.90;99.90
16829;DHT22;8531;48.078;11.968;2022-11-02T09:15:39;13.90;99.90
16829;DHT22;8531;48.078;11.968;2022-11-02T09:18:06;13.90;99.90
16829;DHT22;8531;48.078;11.968;2022-11-02T09:20:32;14.00;99.90
16829;DHT22;8531;48.078;11.968;2022-11-02T09:22:58;14.10;99.90
16829;DHT22;8531;48.078;11.968;2022-11-02T09:25:24;14.30;99.90
16829;DHT22;8531;48.078;11.968;2022-11-02T09:27:54;14.40;99.90
16829;DHT22;8531;48.078;11.968;2022-11-02T09:30:20;14.50;99.90
16829;DHT22;8531;48.078;11.968;2022-11-02T09:33:00;14.60;99.90
16829;DHT22;8531;48.078;11.968;2022-11-02T09:35:28;14.70;99.90
16829;DHT22;8531;48.078;11.968;2022-11-02T09:37:54;14.70;99.90
16829;DHT22;8531;48.078;11.968;2022-11-02T09:40:22;14.70;99.90
16829;DHT22;8531;48.078;11.968;2022-11-02T09:43:05;14.70;99.90
16829;DHT22;8531;48.078;11.968;2022-11-02T09:46:36;14.80;99.90
16829;DHT22;8531;48.078;11.968;2022-11-02T09:48:37;14.80;99.90
16829;DHT22;8531;48.078;11.968;2022-11-02T09:51:12;14.80;99.90
16829;DHT22;8531;48.078;11.968;2022-11-02T09:56:42;14.90;99.90
16829;DHT22;8531;48.078;11.968;2022-11-02T09:59:25;14.90;99.90
16829;DHT22;8531;48.078;11.968;2022-11-02T10:02:01;15.10;99.90
16829;DHT22;8531;48.078;11.968;2022-11-02T10:07:43;15.10;99.90
16829;DHT22;8531;48.078;11.968;2022-11-02T10:13:58;15.10;99.90
16829;DHT22;8531;48.078;11.968;2022-11-02T10:16:32;15.20;99.90
16829;DHT22;8531;48.078;11.968;2022-11-02T10:19:02;15.10;99.90
16829;DHT22;8531;48.078;11.968;2022-11-02T10:21:32;15.10;99.90
16829;DHT22;8531;48.078;11.968;2022-11-02T10:24:12;15.10;99.90
16829;DHT22;8531;48.078;11.968;2022-11-02T10:26:40;15.10;99.90
16829;DHT22;8531;48.078;11.968;2022-11-02T10:32:10;15.10;99.90
16829;DHT22;8531;48.078;11.968;2022-11-02T10:34:37;15.20;99.90
16829;DHT22;8531;48.078;11.968;2022-11-02T10:37:24;15.20;99.90
16829;DHT22;8531;48.078;11.968;2022-11-02T10:43:26;15.30;99.90
16829;DHT22;8531;48.078;11.968;2022-11-02T10:46:01;15.30;99.90
16829;DHT22;8531;48.078;11.968;2022-11-02T10:48:43;15.40;99.90
16829;DHT22;8531;48.078;11.968;2022-11-02T10:51:12;15.40;99.90
16829;DHT22;8531;48.078;11.968;2022-11-02T10:53:46;15.40;99.90
16829;DHT22;8531;48.078;11.968;2022-11-02T10:56:19;15.40;99.90
16829;DHT22;8531;48.078;11.968;2022-11-02T10:59:14;15.50;99.90
16829;DHT22;8531;48.078;11.968;2022-11-02T11:04:24;15.50;99.90
16829;DHT22;8531;48.078;11.968;2022-11-02T11:06:50;15.40;99.90
16829;DHT22;8531;48.078;11.968;2022-11-02T11:09:22;15.40;99.90
16829;DHT22;8531;48.078;11.968;2022-11-02T11:11:52;15.40;99.90
16829;DHT22;8531;48.078;11.968;2022-11-02T11:14:20;15.50;99.90
16829;DHT22;8531;48.078;11.968;2022-11-02T11:16:54;15.40;99.90
16829;DHT22;8531;48.078;11.968;2022-11-02T11:19:22;15.50;99.90
16829;DHT22;8531;48.078;11.968;2022-11-02T11:21:48;15.50;99.90
16829;DHT22;8531;48.078;11.968;2022-11-02T11:24:29;15.50;99.90
16829;DHT22;8531;48.078;11.968;2022-11-02T11:27:00;15.40;99.90
16829;DHT22;8531;48.078;11.968;2022-11-02T11:29:33;15.50;99.90
16829;DHT22;8531;48.078;11.968;2022-11-02T11:32:00;15.50;99.90
16829;DHT22;8531;48.078;11.968;2022-11-02T11:34:29;15.50;99.90
16829;DHT22;8531;48.078;11.968;2022-11-02T11:37:09;15.40;99.90
16829;DHT22;8531;48.078;11.968;2022-11-02T11:39:42;15.50;99.90
16829;DHT22;8531;48.078;11.968;2022-11-02T11:42:17;15.50;99.90
16829;DHT22;8531;48.078;11.968;2022-11-02T11:47:31;15.50;99.90
16829;DHT22;8531;48.078;11.968;2022-11-02T11:50:01;15.60;99.90
16829;DHT22;8531;48.078;11.968;2022-11-02T11:52:30;15.60;99.90
16829;DHT22;8531;48.078;11.968;2022-11-02T11:55:00;15.60;99.90
16829;DHT22;8531;48.078;11.968;2022-11-02T11:57:32;15.60;99.90
16829;DHT22;8531;48.078;11.968;2022-11-02T12:00:25;15.60;99.90
16829;DHT22;8531;48.078;11.968;2022-11-02T12:03:12;15.60;99.90
16829;DHT22;8531;48.078;11.968;2022-11-02T12:11:18;15.60;99.90
16829;DHT22;8531;48.078;11.968;2022-11-02T12:19:10;15.70;99.90
16829;DHT22;8531;48.078;11.968;2022-11-02T12:22:00;15.70;99.90
16829;DHT22;8531;48.078;11.968;2022-11-02T12:24:45;15.60;99.90
16829;DHT22;8531;48.078;11.968;2022-11-02T12:27:23;15.60;99.90
16829;DHT22;8531;48.078;11.968;2022-11-02T12:30:02;15.40;99.90
16829;DHT22;8531;48.078;11.968;2022-11-02T12:35:30;15.40;99.90
16829;DHT22;8531;48.078;11.968;2022-11-02T12:41:06;15.30;99.90
16829;DHT22;8531;48.078;11.968;2022-11-02T12:43:45;15.20;99.90
16829;DHT22;8531;48.078;11.968;2022-11-02T12:46:27;15.10;99.90
16829;DHT22;8531;48.078;11.968;2022-11-02T12:49:03;15.10;99.90
16829;DHT22;8531;48.078;11.968;2022-11-02T12:51:43;15.00;99.90
16829;DHT22;8531;48.078;11.968;2022-11-02T12:54:18;15.10;99.90
16829;DHT22;8531;48.078;11.968;2022-11-02T12:59:31;15.10;99.90
16829;DHT22;8531;48.078;11.968;2022-11-02T13:02:04;15.20;99.90
16829;DHT22;8531;48.078;11.968;2022-11-02T13:04:35;15.20;99.90
16829;DHT22;8531;48.078;11.968;2022-11-02T13:07:10;15.20;99.90
16829;DHT22;8531;48.078;11.968;2022-11-02T13:12:16;15.20;99.90
16829;DHT22;8531;48.078;11.968;2022-11-02T13:14:48;15.10;99.90
16829;DHT22;8531;48.078;11.968;2022-11-02T13:17:27;15.10;99.90
16829;DHT22;8531;48.078;11.968;2022-11-02T13:20:04;15.20;99.90
16829;DHT22;8531;48.078;11.968;2022-11-02T13:22:34;15.20;99.90
16829;DHT22;8531;48.078;11.968;2022-11-02T13:25:15;15.20;99.90
16829;DHT22;8531;48.078;11.968;2022-11-02T13:27:49;15.10;99.90
16829;DHT22;8531;48.078;11.968;2022-11-02T13:30:17;15.20;99.90
16829;DHT22;8531;48.078;11.968;2022-11-02T13:32:44;15.10;99.90
16829;DHT22;8531;48.078;11.968;2022-11-02T13:35:28;15.10;99.90
16829;DHT22;8531;48.078;11.968;2022-11-02T13:38:15;15.00;99.90
16829;DHT22;8531;48.078;11.968;2022-11-02T13:44:03;15.10;99.90
16829;DHT22;8531;48.078;11.968;2022-11-02T13:46:38;15.00;99.90
16829;DHT22;8531;48.078;11.968;2022-11-02T13:49:41;15.10;99.90
16829;DHT22;8531;48.078;11.968;2022-11-02T13:52:17;15.20;99.90
16829;DHT22;8531;48.078;11.968;2022-11-02T13:54:49;15.20;99.90
16829;DHT22;8531;48.078;11.968;2022-11-02T13:59:53;15.20;99.90
16829;DHT22;8531;48.078;11.968;2022-11-02T14:02:20;15.20;99.90
16829;DHT22;8531;48.078;11.968;2022-11-02T14:04:46;15.10;99.90
16829;DHT22;8531;48.078;11.968;2022-11-02T14:07:38;15.20;99.90
16829;DHT22;8531;48.078;11.968;2022-11-02T14:10:15;15.20;99.90
16829;DHT22;8531;48.078;11.968;2022-11-02T14:12:46;15.20;99.90
16829;DHT22;8531;48.078;11.968;2022-11-02T14:18:11;15.20;99.90
16829;DHT22;8531;48.078;11.968;2022-11-02T14:20:46;15.10;99.90
16829;DHT22;8531;48.078;11.968;2022-11-02T14:25:49;15.10;99.90
16829;DHT22;8531;48.078;11.968;2022-11-02T14:30:54;15.10;99.90
16829;DHT22;8531;48.078;11.968;2022-11-02T14:39:12;15.00;99.90
16829;DHT22;8531;48.078;11.968;2022-11-02T14:47:28;15.00;99.90
16829;DHT22;8531;48.078;11.968;2022-11-02T14:52:35;14.90;99.90
16829;DHT22;8531;48.078;11.968;2022-11-02T14:58:34;14.70;99.90
16829;DHT22;8531;48.078;11.968;2022-11-02T15:08:54;14.40;99.90
16829;DHT22;8531;48.078;11.968;2022-11-02T15:11:43;14.30;99.90
16829;DHT22;8531;48.078;11.968;2022-11-02T15:17:00;14.20;99.90
16829;DHT22;8531;48.078;11.968;2022-11-02T15:19:37;14.30;99.90
16829;DHT22;8531;48.078;11.968;2022-11-02T15:27:35;14.10;99.90
16829;DHT22;8531;48.078;11.968;2022-11-02T15:30:03;14.10;99.90
16829;DHT22;8531;48.078;11.968;2022-11-02T15:32:34;14.00;99.90
16829;DHT22;8531;48.078;11.968;2022-11-02T15:35:02;14.00;99.90
16829;DHT22;8531;48.078;11.968;2022-11-02T15:37:30;13.90;99.90
16829;DHT22;8531;48.078;11.968;2022-11-02T15:40:01;13.80;99.90
16829;DHT22;8531;48.078;11.968;2022-11-02T15:43:00;13.70;99.90
16829;DHT22;8531;48.078;11.968;2022-11-02T15:57:02;13.50;99.90
16829;DHT22;8531;48.078;11.968;2022-11-02T16:00:14;13.50;99.90
16829;DHT22;8531;48.078;11.968;2022-11-02T16:02:48;13.40;99.90
16829;DHT22;8531;48.078;11.968;2022-11-02T16:05:22;13.40;99.90
16829;DHT22;8531;48.078;11.968;2022-11-02T16:07:51;13.30;99.90
16829;DHT22;8531;48.078;11.968;2022-11-02T16:15:32;13.10;99.90
16829;DHT22;8531;48.078;11.968;2022-11-02T16:17:58;13.00;99.90
16829;DHT22;8531;48.078;11.968;2022-11-02T16:20:28;12.90;99.90
16829;DHT22;8531;48.078;11.968;2022-11-02T16:22:56;12.80;99.90
16829;DHT22;8531;48.078;11.968;2022-11-02T16:25:44;12.80;99.90
16829;DHT22;8531;48.078;11.968;2022-11-02T16:28:26;12.70;99.90
16829;DHT22;8531;48.078;11.968;2022-11-02T16:33:46;12.60;99.90
16829;DHT22;8531;48.078;11.968;2022-11-02T16:36:23;12.50;99.90
16829;DHT22;8531;48.078;11.968;2022-11-02T16:39:06;12.40;99.90
16829;DHT22;8531;48.078;11.968;2022-11-02T16:41:38;12.40;99.90
16829;DHT22;8531;48.078;11.968;2022-11-02T16:44:10;12.30;99.90
16829;DHT22;8531;48.078;11.968;2022-11-02T16:46:47;12.20;99.90
16829;DHT22;8531;48.078;11.968;2022-11-02T16:49:25;12.20;99.90
16829;DHT22;8531;48.078;11.968;2022-11-02T16:51:59;12.10;99.90
16829;DHT22;8531;48.078;11.968;2022-11-02T16:54:38;12.10;99.90
16829;DHT22;8531;48.078;11.968;2022-11-02T16:59:56;12.10;99.90
16829;DHT22;8531;48.078;11.968;2022-11-02T17:04:57;12.00;99.90
16829;DHT22;8531;48.078;11.968;2022-11-02T17:07:28;11.90;99.90
16829;DHT22;8531;48.078;11.968;2022-11-02T17:09:55;11.80;99.90
16829;DHT22;8531;48.078;11.968;2022-11-02T17:12:41;11.70;99.90
16829;DHT22;8531;48.078;11.968;2022-11-02T17:15:16;11.70;99.90
16829;DHT22;8531;48.078;11.968;2022-11-02T17:17:42;11.60;99.90
16829;DHT22;8531;48.078;11.968;2022-11-02T17:23:05;11.50;99.90
16829;DHT22;8531;48.078;11.968;2022-11-02T17:25:39;11.40;99.90
16829;DHT22;8531;48.078;11.968;2022-11-02T17:30:59;11.40;99.90
16829;DHT22;8531;48.078;11.968;2022-11-02T17:33:27;11.40;99.90
16829;DHT22;8531;48.078;11.968;2022-11-02T17:35:56;11.40;99.90
16829;DHT22;8531;48.078;11.968;2022-11-02T17:38:27;11.40;99.90
16829;DHT22;8531;48.078;11.968;2022-11-02T17:40:54;11.30;99.90
16829;DHT22;8531;48.078;11.968;2022-11-02T17:43:21;11.20;99.90
16829;DHT22;8531;48.078;11.968;2022-11-02T17:45:59;11.10;99.90
16829;DHT22;8531;48.078;11.968;2022-11-02T17:48:26;11.10;99.90
16829;DHT22;8531;48.078;11.968;2022-11-02T17:50:56;11.10;99.90
16829;DHT22;8531;48.078;11.968;2022-11-02T17:53:24;11.10;99.90
16829;DHT22;8531;48.078;11.968;2022-11-02T17:55:50;11.10;99.90
16829;DHT22;8531;48.078;11.968;2022-11-02T17:58:16;11.10;99.90
16829;DHT22;8531;48.078;11.968;2022-11-02T18:00:42;11.00;99.90
16829;DHT22;8531;48.078;11.968;2022-11-02T18:03:16;10.90;99.90
16829;DHT22;8531;48.078;11.968;2022-11-02T18:05:43;10.90;99.90
16829;DHT22;8531;48.078;11.968;2022-11-02T18:08:09;10.90;99.90
16829;DHT22;8531;48.078;11.968;2022-11-02T18:10:43;10.80;99.90
16829;DHT22;8531;48.078;11.968;2022-11-02T18:13:14;10.90;99.90